sensor_id;sensor_type;location;lat;lon;timestamp;pressure;altitude;pressure_sealevel;temperature;humidity
73516;BME280;61763;51.416;5.442;2024-02-21T00:00:56;102175.47;;;8.21;100.00
73516;BME280;61763;51.416;5.442;2024-02-21T00:03:22;102174.59;;;8.20;100.00
73516;BME280;61763;51.416;5.442;2024-02-21T00:05:50;102171.97;;;8.16;100.00
73516;BME280;61763;51.416;5.442;2024-02-21T00:08:16;102177.31;;;8.17;100.00
73516;BME280;61763;51.416;5.442;2024-02-21T00:10:41;102172.72;;;8.22;100.00
73516;BME280;61763;51.416;5.442;2024-02-21T00:13:07;102171.94;;;8.17;100.00
73516;BME280;61763;51.416;5.442;2024-02-21T00:15:32;102168.25;;;8.21;100.00
73516;BME280;61763;51.416;5.442;2024-02-21T00:17:57;102176.56;;;8.09;100.00
73516;BME280;61763;51.416;5.442;2024-02-21T00:20:23;102179.16;;;8.14;100.00
73516;BME280;61763;51.416;5.442;2024-02-21T00:22:50;102187.34;;;8.09;100.00
73516;BME280;61763;51.416;5.442;2024-02-21T00:25:17;102182.91;;;8.05;100.00
73516;BME280;61763;51.416;5.442;2024-02-21T00:27:42;102177.44;;;8.10;100.00
73516;BME280;61763;51.416;5.442;2024-02-21T00:30:09;102172.19;;;8.03;100.00
73516;BME280;61763;51.416;5.442;2024-02-21T00:32:34;102172.13;;;8.06;100.00
73516;BME280;61763;51.416;5.442;2024-02-21T00:35:00;102167.63;;;8.09;100.00
73516;BME280;61763;51.416;5.442;2024-02-21T00:37:27;102161.41;;;8.05;100.00
73516;BME280;61763;51.416;5.442;2024-02-21T00:39:55;102150.03;;;7.92;100.00
73516;BME280;61763;51.416;5.442;2024-02-21T00:42:21;102146.50;;;7.87;100.00
73516;BME280;61763;51.416;5.442;2024-02-21T00:44:48;102144.88;;;7.78;100.00
73516;BME280;61763;51.416;5.442;2024-02-21T00:47:13;102140.25;;;7.86;100.00
73516;BME280;61763;51.416;5.442;2024-02-21T00:49:38;102129.59;;;7.82;100.00
73516;BME280;61763;51.416;5.442;2024-02-21T00:52:04;102124.34;;;7.74;100.00
73516;BME280;61763;51.416;5.442;2024-02-21T00:54:29;102131.78;;;7.58;100.00
73516;BME280;61763;51.416;5.442;2024-02-21T00:56:54;102108.44;;;7.62;100.00
73516;BME280;61763;51.416;5.442;2024-02-21T00:59:20;102104.78;;;7.67;100.00
73516;BME280;61763;51.416;5.442;2024-02-21T01:01:45;102111.97;;;7.64;100.00
73516;BME280;61763;51.416;5.442;2024-02-21T01:04:11;102125.34;;;7.68;100.00
73516;BME280;61763;51.416;5.442;2024-02-21T01:06:37;102130.63;;;7.75;100.00
73516;BME280;61763;51.416;5.442;2024-02-21T01:09:03;102118.94;;;7.76;100.00
73516;BME280;61763;51.416;5.442;2024-02-21T01:11:29;102120.66;;;7.80;100.00
73516;BME280;61763;51.416;5.442;2024-02-21T01:13:55;102118.84;;;7.82;100.00
73516;BME280;61763;51.416;5.442;2024-02-21T01:16:20;102118.06;;;7.75;100.00
73516;BME280;61763;51.416;5.442;2024-02-21T01:18:46;102110.88;;;7.76;100.00
73516;BME280;61763;51.416;5.442;2024-02-21T01:21:12;102101.84;;;7.80;100.00
73516;BME280;61763;51.416;5.442;2024-02-21T01:23:38;102086.63;;;7.79;100.00
73516;BME280;61763;51.416;5.442;2024-02-21T01:26:04;102085.84;;;7.74;100.00
73516;BME280;61763;51.416;5.442;2024-02-21T01:28:30;102080.47;;;7.74;100.00
73516;BME280;61763;51.416;5.442;2024-02-21T01:30:56;102075.09;;;7.74;100.00
73516;BME280;61763;51.416;5.442;2024-02-21T01:33:21;102080.63;;;7.66;100.00
73516;BME280;61763;51.416;5.442;2024-02-21T01:35:47;102087.94;;;7.56;100.00
73516;BME280;61763;51.416;5.442;2024-02-21T01:38:14;102085.22;;;7.58;100.00
73516;BME280;61763;51.416;5.442;2024-02-21T01:40:39;102077.06;;;7.64;100.00
73516;BME280;61763;51.416;5.442;2024-02-21T01:43:19;102078.72;;;7.71;100.00
73516;BME280;61763;51.416;5.442;2024-02-21T01:45:55;102077.88;;;7.69;100.00
73516;BME280;61763;51.416;5.442;2024-02-21T01:48:24;102078.72;;;7.71;100.00
73516;BME280;61763;51.416;5.442;2024-02-21T01:50:51;102068.06;;;7.66;100.00
73516;BME280;61763;51.416;5.442;2024-02-21T01:53:20;102068.91;;;7.68;100.00
73516;BME280;61763;51.416;5.442;2024-02-21T01:55:46;102070.69;;;7.69;100.00
73516;BME280;61763;51.416;5.442;2024-02-21T01:58:15;102074.41;;;7.62;100.00
73516;BME280;61763;51.416;5.442;2024-02-21T02:00:43;102074.47;;;7.59;100.00
73516;BME280;61763;51.416;5.442;2024-02-21T02:03:12;102076.94;;;7.71;100.00
73516;BME280;61763;51.416;5.442;2024-02-21T02:05:45;102075.88;;;7.80;100.00
73516;BME280;61763;51.416;5.442;2024-02-21T02:08:12;102081.38;;;7.72;100.00
73516;BME280;61763;51.416;5.442;2024-02-21T02:10:40;102066.97;;;7.77;100.00
73516;BME280;61763;51.416;5.442;2024-02-21T02:13:06;102067.09;;;7.70;100.00
73516;BME280;61763;51.416;5.442;2024-02-21T02:15:44;102065.31;;;7.69;100.00
73516;BME280;61763;51.416;5.442;2024-02-21T02:18:11;102059.84;;;7.74;100.00
73516;BME280;61763;51.416;5.442;2024-02-21T02:20:37;102054.38;;;7.79;100.00
73516;BME280;61763;51.416;5.442;2024-02-21T02:23:29;102062.56;;;7.72;100.00
73516;BME280;61763;51.416;5.442;2024-02-21T02:25:54;102044.56;;;7.78;100.00
73516;BME280;61763;51.416;5.442;2024-02-21T02:28:20;102041.81;;;7.81;100.00
73516;BME280;61763;51.416;5.442;2024-02-21T02:30:47;102036.59;;;7.73;100.00
73516;BME280;61763;51.416;5.442;2024-02-21T02:33:13;102031.16;;;7.76;100.00
73516;BME280;61763;51.416;5.442;2024-02-21T02:35:38;102021.34;;;7.74;100.00
73516;BME280;61763;51.416;5.442;2024-02-21T02:38:04;102020.34;;;7.79;100.00
73516;BME280;61763;51.416;5.442;2024-02-21T02:40:30;102009.78;;;7.70;100.00
73516;BME280;61763;51.416;5.442;2024-02-21T02:42:55;102018.91;;;7.61;100.00
73516;BME280;61763;51.416;5.442;2024-02-21T02:45:22;102016.22;;;7.61;100.00
73516;BME280;61763;51.416;5.442;2024-02-21T02:47:54;102022.47;;;7.62;100.00
73516;BME280;61763;51.416;5.442;2024-02-21T02:50:19;102016.09;;;7.67;100.00
73516;BME280;61763;51.416;5.442;2024-02-21T02:52:45;102008.91;;;7.68;100.00
73516;BME280;61763;51.416;5.442;2024-02-21T02:55:10;102000.84;;;7.68;100.00
73516;BME280;61763;51.416;5.442;2024-02-21T02:57:36;101993.81;;;7.61;100.00
73516;BME280;61763;51.416;5.442;2024-02-21T03:00:02;102002.72;;;7.64;100.00
73516;BME280;61763;51.416;5.442;2024-02-21T03:02:28;101992.69;;;7.72;100.00
73516;BME280;61763;51.416;5.442;2024-02-21T03:04:53;101977.56;;;7.68;100.00
73516;BME280;61763;51.416;5.442;2024-02-21T03:07:20;101967.81;;;7.64;100.00
73516;BME280;61763;51.416;5.442;2024-02-21T03:09:45;101981.91;;;7.74;100.00
73516;BME280;61763;51.416;5.442;2024-02-21T03:12:10;101990.19;;;7.63;100.00
73516;BME280;61763;51.416;5.442;2024-02-21T03:14:36;101990.06;;;7.69;100.00
73516;BME280;61763;51.416;5.442;2024-02-21T03:17:02;101987.28;;;7.74;100.00
73516;BME280;61763;51.416;5.442;2024-02-21T03:19:28;101987.19;;;7.79;100.00
73516;BME280;61763;51.416;5.442;2024-02-21T03:21:54;101982.69;;;7.81;100.00
73516;BME280;61763;51.416;5.442;2024-02-21T03:24:19;101977.31;;;7.81;100.00
73516;BME280;61763;51.416;5.442;2024-02-21T03:26:45;101969.25;;;7.81;100.00
73516;BME280;61763;51.416;5.442;2024-02-21T03:29:15;101966.47;;;7.85;100.00
73516;BME280;61763;51.416;5.442;2024-02-21T03:31:41;101960.34;;;7.77;100.00
73516;BME280;61763;51.416;5.442;2024-02-21T03:34:06;101958.63;;;7.75;100.00
73516;BME280;61763;51.416;5.442;2024-02-21T03:36:32;101962.06;;;7.81;100.00
73516;BME280;61763;51.416;5.442;2024-02-21T03:38:57;101946.03;;;7.77;100.00
73516;BME280;61763;51.416;5.442;2024-02-21T03:41:22;101944.28;;;7.74;100.00
73516;BME280;61763;51.416;5.442;2024-02-21T03:43:48;101940.56;;;7.81;100.00
73516;BME280;61763;51.416;5.442;2024-02-21T03:46:14;101943.41;;;7.74;100.00
73516;BME280;61763;51.416;5.442;2024-02-21T03:48:39;101938.91;;;7.74;100.00
73516;BME280;61763;51.416;5.442;2024-02-21T03:51:05;101932.81;;;7.67;100.00
73516;BME280;61763;51.416;5.442;2024-02-21T03:53:30;101926.50;;;7.68;100.00
73516;BME280;61763;51.416;5.442;2024-02-21T03:55:56;101919.41;;;7.66;100.00
73516;BME280;61763;51.416;5.442;2024-02-21T03:58:21;101921.31;;;7.59;100.00
73516;BME280;61763;51.416;5.442;2024-02-21T04:00:47;101918.63;;;7.59;100.00
73516;BME280;61763;51.416;5.442;2024-02-21T04:03:13;101915.06;;;7.59;100.00
73516;BME280;61763;51.416;5.442;2024-02-21T04:05:38;101918.75;;;7.54;100.00
73516;BME280;61763;51.416;5.442;2024-02-21T04:08:06;101917.84;;;7.56;100.00
73516;BME280;61763;51.416;5.442;2024-02-21T04:10:33;101915.16;;;7.56;100.00
73516;BME280;61763;51.416;5.442;2024-02-21T04:12:58;101925.16;;;7.47;100.00
73516;BME280;61763;51.416;5.442;2024-02-21T04:15:23;101925.25;;;7.43;100.00
73516;BME280;61763;51.416;5.442;2024-02-21T04:17:49;101922.38;;;7.52;100.00
73516;BME280;61763;51.416;5.442;2024-02-21T04:20:16;101917.09;;;7.47;100.00
73516;BME280;61763;51.416;5.442;2024-02-21T04:22:45;101926.09;;;7.45;100.00
73516;BME280;61763;51.416;5.442;2024-02-21T04:25:11;101927.88;;;7.46;100.00
73516;BME280;61763;51.416;5.442;2024-02-21T04:27:39;101919.66;;;7.53;100.00
73516;BME280;61763;51.416;5.442;2024-02-21T04:30:06;101922.47;;;7.47;100.00
73516;BME280;61763;51.416;5.442;2024-02-21T04:32:31;101926.94;;;7.48;100.00
73516;BME280;61763;51.416;5.442;2024-02-21T04:34:56;101920.66;;;7.48;100.00
73516;BME280;61763;51.416;5.442;2024-02-21T04:37:22;101922.38;;;7.52;100.00
73516;BME280;61763;51.416;5.442;2024-02-21T04:39:50;101918.81;;;7.51;100.00
73516;BME280;61763;51.416;5.442;2024-02-21T04:42:16;101922.47;;;7.47;100.00
73516;BME280;61763;51.416;5.442;2024-02-21T04:44:42;101921.50;;;7.51;100.00
73516;BME280;61763;51.416;5.442;2024-02-21T04:47:07;101919.81;;;7.46;100.00
73516;BME280;61763;51.416;5.442;2024-02-21T04:49:33;101911.63;;;7.52;100.00
73516;BME280;61763;51.416;5.442;2024-02-21T04:51:58;101911.75;;;7.46;100.00
73516;BME280;61763;51.416;5.442;2024-02-21T04:54:24;101909.81;;;7.54;100.00
73516;BME280;61763;51.416;5.442;2024-02-21T04:56:49;101905.28;;;7.56;100.00
73516;BME280;61763;51.416;5.442;2024-02-21T04:59:15;101908.88;;;7.55;100.00
73516;BME280;61763;51.416;5.442;2024-02-21T05:01:40;101900.84;;;7.53;100.00
73516;BME280;61763;51.416;5.442;2024-02-21T05:04:06;101898.94;;;7.60;100.00
73516;BME280;61763;51.416;5.442;2024-02-21T05:06:31;101900.63;;;7.64;100.00
73516;BME280;61763;51.416;5.442;2024-02-21T05:08:57;101894.50;;;7.58;100.00
73516;BME280;61763;51.416;5.442;2024-02-21T05:11:23;101886.50;;;7.54;100.00
73516;BME280;61763;51.416;5.442;2024-02-21T05:13:49;101896.22;;;7.62;100.00
73516;BME280;61763;51.416;5.442;2024-02-21T05:16:14;101898.84;;;7.63;100.00
73516;BME280;61763;51.416;5.442;2024-02-21T05:18:42;101894.44;;;7.61;100.00
73516;BME280;61763;51.416;5.442;2024-02-21T05:21:10;101893.47;;;7.63;100.00
73516;BME280;61763;51.416;5.442;2024-02-21T05:23:35;101878.31;;;7.61;100.00
73516;BME280;61763;51.416;5.442;2024-02-21T05:26:01;101873.84;;;7.61;100.00
73516;BME280;61763;51.416;5.442;2024-02-21T05:28:26;101869.59;;;7.51;100.00
73516;BME280;61763;51.416;5.442;2024-02-21T05:30:51;101867.59;;;7.59;100.00
73516;BME280;61763;51.416;5.442;2024-02-21T05:33:17;101862.38;;;7.53;100.00
73516;BME280;61763;51.416;5.442;2024-02-21T05:35:47;101846.31;;;7.50;100.00
73516;BME280;61763;51.416;5.442;2024-02-21T05:38:13;101850.59;;;7.59;100.00
73516;BME280;61763;51.416;5.442;2024-02-21T05:40:39;101853.31;;;7.57;100.00
73516;BME280;61763;51.416;5.442;2024-02-21T05:43:04;101851.50;;;7.58;100.00
73516;BME280;61763;51.416;5.442;2024-02-21T05:45:30;101845.41;;;7.51;100.00
73516;BME280;61763;51.416;5.442;2024-02-21T05:47:55;101841.75;;;7.53;100.00
73516;BME280;61763;51.416;5.442;2024-02-21T05:50:22;101847.16;;;7.52;100.00
73516;BME280;61763;51.416;5.442;2024-02-21T05:52:51;101838.19;;;7.53;100.00
73516;BME280;61763;51.416;5.442;2024-02-21T05:55:16;101827.53;;;7.48;100.00
73516;BME280;61763;51.416;5.442;2024-02-21T05:57:42;101835.47;;;7.54;100.00
73516;BME280;61763;51.416;5.442;2024-02-21T06:00:07;101831.00;;;7.53;100.00
73516;BME280;61763;51.416;5.442;2024-02-21T06:02:33;101827.41;;;7.54;100.00
73516;BME280;61763;51.416;5.442;2024-02-21T06:04:58;101830.97;;;7.55;100.00
73516;BME280;61763;51.416;5.442;2024-02-21T06:07:24;101822.00;;;7.56;100.00
73516;BME280;61763;51.416;5.442;2024-02-21T06:09:49;101819.34;;;7.54;100.00
73516;BME280;61763;51.416;5.442;2024-02-21T06:12:14;101808.63;;;7.53;100.00
73516;BME280;61763;51.416;5.442;2024-02-21T06:14:40;101798.75;;;7.53;100.00
73516;BME280;61763;51.416;5.442;2024-02-21T06:17:05;101791.78;;;7.45;100.00
73516;BME280;61763;51.416;5.442;2024-02-21T06:19:30;101790.09;;;7.42;100.00
73516;BME280;61763;51.416;5.442;2024-02-21T06:21:56;101792.81;;;7.41;100.00
73516;BME280;61763;51.416;5.442;2024-02-21T06:24:21;101795.34;;;7.47;100.00
73516;BME280;61763;51.416;5.442;2024-02-21T06:26:47;101791.94;;;7.39;100.00
73516;BME280;61763;51.416;5.442;2024-02-21T06:29:12;101792.56;;;7.51;100.00
73516;BME280;61763;51.416;5.442;2024-02-21T06:31:39;101792.66;;;7.47;100.00
73516;BME280;61763;51.416;5.442;2024-02-21T06:34:05;101795.31;;;7.48;100.00
73516;BME280;61763;51.416;5.442;2024-02-21T06:36:30;101786.38;;;7.46;100.00
73516;BME280;61763;51.416;5.442;2024-02-21T06:38:56;101794.38;;;7.51;100.00
73516;BME280;61763;51.416;5.442;2024-02-21T06:41:21;101798.06;;;7.45;100.00
73516;BME280;61763;51.416;5.442;2024-02-21T06:43:47;101797.06;;;7.51;100.00
73516;BME280;61763;51.416;5.442;2024-02-21T06:46:24;101793.53;;;7.47;100.00
73516;BME280;61763;51.416;5.442;2024-02-21T06:48:50;101787.41;;;7.42;100.00
73516;BME280;61763;51.416;5.442;2024-02-21T06:51:16;101796.22;;;7.47;100.00
73516;BME280;61763;51.416;5.442;2024-02-21T06:53:41;101794.44;;;7.46;100.00
73516;BME280;61763;51.416;5.442;2024-02-21T06:56:07;101808.84;;;7.44;100.00
73516;BME280;61763;51.416;5.442;2024-02-21T06:58:32;101807.84;;;7.48;100.00
73516;BME280;61763;51.416;5.442;2024-02-21T07:00:57;101804.34;;;7.44;100.00
73516;BME280;61763;51.416;5.442;2024-02-21T07:03:23;101798.66;;;7.60;100.00
73516;BME280;61763;51.416;5.442;2024-02-21T07:05:49;101789.88;;;7.51;100.00
73516;BME280;61763;51.416;5.442;2024-02-21T07:08:15;101789.72;;;7.58;100.00
73516;BME280;61763;51.416;5.442;2024-02-21T07:10:40;101788.94;;;7.54;100.00
73516;BME280;61763;51.416;5.442;2024-02-21T07:13:06;101787.03;;;7.58;100.00
73516;BME280;61763;51.416;5.442;2024-02-21T07:15:31;101778.09;;;7.57;100.00
73516;BME280;61763;51.416;5.442;2024-02-21T07:17:58;101775.50;;;7.54;100.00
73516;BME280;61763;51.416;5.442;2024-02-21T07:20:24;101773.59;;;7.58;100.00
73516;BME280;61763;51.416;5.442;2024-02-21T07:22:49;101777.25;;;7.55;100.00
73516;BME280;61763;51.416;5.442;2024-02-21T07:25:14;101778.75;;;7.67;100.00
73516;BME280;61763;51.416;5.442;2024-02-21T07:27:40;101782.53;;;7.58;100.00
73516;BME280;61763;51.416;5.442;2024-02-21T07:30:06;101768.00;;;7.67;100.00
73516;BME280;61763;51.416;5.442;2024-02-21T07:32:31;101772.59;;;7.63;100.00
73516;BME280;61763;51.416;5.442;2024-02-21T07:34:57;101760.78;;;7.70;100.00
73516;BME280;61763;51.416;5.442;2024-02-21T07:37:22;101753.56;;;7.72;100.00
73516;BME280;61763;51.416;5.442;2024-02-21T07:39:47;101753.56;;;7.72;100.00
73516;BME280;61763;51.416;5.442;2024-02-21T07:42:13;101752.53;;;7.78;100.00
73516;BME280;61763;51.416;5.442;2024-02-21T07:44:38;101748.94;;;7.79;100.00
73516;BME280;61763;51.416;5.442;2024-02-21T07:47:03;101735.53;;;7.78;100.00
73516;BME280;61763;51.416;5.442;2024-02-21T07:49:29;101738.81;;;7.89;100.00
73516;BME280;61763;51.416;5.442;2024-02-21T07:51:54;101729.00;;;7.88;100.00
73516;BME280;61763;51.416;5.442;2024-02-21T07:54:20;101720.69;;;7.97;100.00
73516;BME280;61763;51.416;5.442;2024-02-21T07:56:45;101717.81;;;8.05;100.00
73516;BME280;61763;51.416;5.442;2024-02-21T07:59:10;101719.66;;;8.03;100.00
73516;BME280;61763;51.416;5.442;2024-02-21T08:01:38;101709.66;;;8.08;100.00
73516;BME280;61763;51.416;5.442;2024-02-21T08:04:03;101710.56;;;8.09;100.00
73516;BME280;61763;51.416;5.442;2024-02-21T08:06:29;101710.00;;;7.96;100.00
73516;BME280;61763;51.416;5.442;2024-02-21T08:08:55;101709.69;;;8.06;100.00
73516;BME280;61763;51.416;5.442;2024-02-21T08:11:22;101710.66;;;8.05;100.00
73516;BME280;61763;51.416;5.442;2024-02-21T08:13:47;101702.53;;;8.07;100.00
73516;BME280;61763;51.416;5.442;2024-02-21T08:16:13;101697.13;;;8.09;100.00
73516;BME280;61763;51.416;5.442;2024-02-21T08:18:38;101695.91;;;8.20;100.00
73516;BME280;61763;51.416;5.442;2024-02-21T08:21:04;101686.03;;;8.21;100.00
73516;BME280;61763;51.416;5.442;2024-02-21T08:23:29;101678.84;;;8.21;100.00
73516;BME280;61763;51.416;5.442;2024-02-21T08:25:55;101668.03;;;8.24;100.00
73516;BME280;61763;51.416;5.442;2024-02-21T08:28:20;101664.09;;;8.36;100.00
73516;BME280;61763;51.416;5.442;2024-02-21T08:30:45;101657.78;;;8.37;100.00
73516;BME280;61763;51.416;5.442;2024-02-21T08:33:14;101648.06;;;8.32;100.00
73516;BME280;61763;51.416;5.442;2024-02-21T08:35:40;101656.13;;;8.32;100.00
73516;BME280;61763;51.416;5.442;2024-02-21T08:38:05;101652.50;;;8.34;100.00
73516;BME280;61763;51.416;5.442;2024-02-21T08:40:30;101640.63;;;8.41;100.00
73516;BME280;61763;51.416;5.442;2024-02-21T08:42:56;101641.97;;;8.27;100.00
73516;BME280;61763;51.416;5.442;2024-02-21T08:45:21;101647.84;;;8.41;100.00
73516;BME280;61763;51.416;5.442;2024-02-21T08:47:46;101646.28;;;8.32;100.00
73516;BME280;61763;51.416;5.442;2024-02-21T08:50:12;101639.25;;;8.27;100.00
73516;BME280;61763;51.416;5.442;2024-02-21T08:52:37;101637.44;;;8.27;100.00
73516;BME280;61763;51.416;5.442;2024-02-21T08:55:03;101633.34;;;8.14;100.00
73516;BME280;61763;51.416;5.442;2024-02-21T08:57:29;101632.56;;;8.10;100.00
73516;BME280;61763;51.416;5.442;2024-02-21T08:59:54;101624.19;;;8.21;100.00
73516;BME280;61763;51.416;5.442;2024-02-21T09:02:19;101623.50;;;8.14;100.00
73516;BME280;61763;51.416;5.442;2024-02-21T09:04:45;101619.44;;;8.31;100.00
73516;BME280;61763;51.416;5.442;2024-02-21T09:07:11;101601.47;;;8.31;100.00
73516;BME280;61763;51.416;5.442;2024-02-21T09:09:37;101615.78;;;8.33;100.00
73516;BME280;61763;51.416;5.442;2024-02-21T09:12:05;101609.50;;;8.33;100.00
73516;BME280;61763;51.416;5.442;2024-02-21T09:14:32;101613.34;;;8.24;100.00
73516;BME280;61763;51.416;5.442;2024-02-21T09:16:57;101618.16;;;8.13;100.00
73516;BME280;61763;51.416;5.442;2024-02-21T09:19:23;101605.63;;;8.12;100.00
73516;BME280;61763;51.416;5.442;2024-02-21T09:21:48;101593.97;;;8.11;100.00
73516;BME280;61763;51.416;5.442;2024-02-21T09:24:14;101595.00;;;8.07;100.00
73516;BME280;61763;51.416;5.442;2024-02-21T09:26:39;101600.91;;;8.20;100.00
73516;BME280;61763;51.416;5.442;2024-02-21T09:29:05;101598.22;;;8.20;100.00
73516;BME280;61763;51.416;5.442;2024-02-21T09:31:30;101604.53;;;8.19;100.00
73516;BME280;61763;51.416;5.442;2024-02-21T09:33:55;101594.00;;;8.10;100.00
73516;BME280;61763;51.416;5.442;2024-02-21T09:36:21;101590.19;;;8.18;100.00
73516;BME280;61763;51.416;5.442;2024-02-21T09:38:46;101584.22;;;8.09;100.00
73516;BME280;61763;51.416;5.442;2024-02-21T09:43:42;101569.56;;;8.19;100.00
73516;BME280;61763;51.416;5.442;2024-02-21T09:46:13;101564.00;;;8.25;100.00
73516;BME280;61763;51.416;5.442;2024-02-21T09:51:32;101550.38;;;8.31;100.00
73516;BME280;61763;51.416;5.442;2024-02-21T09:53:59;101543.59;;;8.49;100.00
73516;BME280;61763;51.416;5.442;2024-02-21T09:56:25;101538.88;;;8.57;100.00
73516;BME280;61763;51.416;5.442;2024-02-21T09:58:51;101523.28;;;8.69;100.00
73516;BME280;61763;51.416;5.442;2024-02-21T10:01:16;101518.66;;;8.72;100.00
73516;BME280;61763;51.416;5.442;2024-02-21T10:03:42;101507.09;;;8.70;100.00
73516;BME280;61763;51.416;5.442;2024-02-21T10:06:09;101506.78;;;8.80;100.00
73516;BME280;61763;51.416;5.442;2024-02-21T10:08:35;101494.38;;;9.02;100.00
73516;BME280;61763;51.416;5.442;2024-02-21T10:11:00;101488.97;;;9.02;100.00
73516;BME280;61763;51.416;5.442;2024-02-21T10:13:29;101487.91;;;9.08;100.00
73516;BME280;61763;51.416;5.442;2024-02-21T10:16:05;101480.44;;;9.16;100.00
73516;BME280;61763;51.416;5.442;2024-02-21T10:18:32;101471.47;;;9.16;100.00
73516;BME280;61763;51.416;5.442;2024-02-21T10:23:27;101457.66;;;9.52;100.00
73516;BME280;61763;51.416;5.442;2024-02-21T10:25:53;101446.81;;;9.53;100.00
73516;BME280;61763;51.416;5.442;2024-02-21T10:28:18;101439.03;;;9.45;100.00
73516;BME280;61763;51.416;5.442;2024-02-21T10:30:51;101433.22;;;9.56;100.00
73516;BME280;61763;51.416;5.442;2024-02-21T10:33:17;101422.56;;;9.53;100.00
73516;BME280;61763;51.416;5.442;2024-02-21T10:35:46;101401.09;;;9.75;100.00
73516;BME280;61763;51.416;5.442;2024-02-21T10:38:12;101391.59;;;9.89;100.00
73516;BME280;61763;51.416;5.442;2024-02-21T10:40:38;101389.69;;;9.91;100.00
73516;BME280;61763;51.416;5.442;2024-02-21T10:43:05;101375.16;;;9.95;100.00
73516;BME280;61763;51.416;5.442;2024-02-21T10:45:35;101358.19;;;9.93;100.00
73516;BME280;61763;51.416;5.442;2024-02-21T10:48:13;101360.56;;;10.00;100.00
73516;BME280;61763;51.416;5.442;2024-02-21T10:55:49;101349.34;;;10.11;100.00
73516;BME280;61763;51.416;5.442;2024-02-21T10:58:17;101356.94;;;10.02;100.00
73516;BME280;61763;51.416;5.442;2024-02-21T11:00:43;101359.97;;;10.16;100.00
73516;BME280;61763;51.416;5.442;2024-02-21T11:03:09;101362.84;;;9.88;100.00
73516;BME280;61763;51.416;5.442;2024-02-21T11:05:34;101369.50;;;9.79;100.00
73516;BME280;61763;51.416;5.442;2024-02-21T11:08:01;101361.06;;;9.88;100.00
73516;BME280;61763;51.416;5.442;2024-02-21T11:10:27;101363.78;;;9.64;100.00
73516;BME280;61763;51.416;5.442;2024-02-21T11:13:06;101359.78;;;9.51;100.00
73516;BME280;61763;51.416;5.442;2024-02-21T11:15:32;101357.59;;;9.61;100.00
73516;BME280;61763;51.416;5.442;2024-02-21T11:17:57;101347.31;;;9.72;100.00
73516;BME280;61763;51.416;5.442;2024-02-21T11:20:35;101336.41;;;9.75;100.00
73516;BME280;61763;51.416;5.442;2024-02-21T11:23:01;101325.38;;;9.81;100.00
73516;BME280;61763;51.416;5.442;2024-02-21T11:25:27;101320.97;;;9.79;100.00
73516;BME280;61763;51.416;5.442;2024-02-21T11:28:03;101307.47;;;9.80;100.00
73516;BME280;61763;51.416;5.442;2024-02-21T11:30:30;101304.53;;;10.09;100.00
73516;BME280;61763;51.416;5.442;2024-02-21T11:33:03;101288.81;;;10.41;100.00
73516;BME280;61763;51.416;5.442;2024-02-21T11:35:35;101285.06;;;10.65;100.00
73516;BME280;61763;51.416;5.442;2024-02-21T11:38:11;101287.25;;;10.57;100.00
73516;BME280;61763;51.416;5.442;2024-02-21T11:40:40;101282.56;;;10.61;100.00
73516;BME280;61763;51.416;5.442;2024-02-21T11:43:07;101274.69;;;10.77;100.00
73516;BME280;61763;51.416;5.442;2024-02-21T11:45:32;101283.94;;;10.71;100.00
73516;BME280;61763;51.416;5.442;2024-02-21T11:47:59;101283.06;;;10.71;100.00
73516;BME280;61763;51.416;5.442;2024-02-21T11:50:26;101275.25;;;10.42;100.00
73516;BME280;61763;51.416;5.442;2024-02-21T11:52:54;101258.50;;;10.56;100.00
73516;BME280;61763;51.416;5.442;2024-02-21T11:55:20;101244.84;;;10.39;100.00
73516;BME280;61763;51.416;5.442;2024-02-21T11:57:47;101210.91;;;10.54;100.00
73516;BME280;61763;51.416;5.442;2024-02-21T12:00:19;101230.16;;;10.66;100.00
73516;BME280;61763;51.416;5.442;2024-02-21T12:02:49;101208.97;;;10.78;100.00
73516;BME280;61763;51.416;5.442;2024-02-21T12:05:15;101193.63;;;10.78;100.00
73516;BME280;61763;51.416;5.442;2024-02-21T12:07:41;101201.38;;;10.65;100.00
73516;BME280;61763;51.416;5.442;2024-02-21T12:10:08;101205.22;;;10.80;100.00
73516;BME280;61763;51.416;5.442;2024-02-21T12:12:35;101202.41;;;11.02;100.00
73516;BME280;61763;51.416;5.442;2024-02-21T12:15:06;101172.44;;;11.09;100.00
73516;BME280;61763;51.416;5.442;2024-02-21T12:17:35;101175.84;;;11.12;100.00
73516;BME280;61763;51.416;5.442;2024-02-21T12:20:04;101168.19;;;11.22;100.00
73516;BME280;61763;51.416;5.442;2024-02-21T12:22:41;101157.22;;;11.25;100.00
73516;BME280;61763;51.416;5.442;2024-02-21T12:25:25;101145.09;;;11.34;100.00
73516;BME280;61763;51.416;5.442;2024-02-21T12:27:54;101138.09;;;11.11;100.00
73516;BME280;61763;51.416;5.442;2024-02-21T12:30:19;101147.91;;;11.13;100.00
73516;BME280;61763;51.416;5.442;2024-02-21T12:32:46;101132.22;;;11.39;100.00
73516;BME280;61763;51.416;5.442;2024-02-21T12:35:11;101129.25;;;11.26;100.00
73516;BME280;61763;51.416;5.442;2024-02-21T12:37:37;101121.31;;;11.04;100.00
73516;BME280;61763;51.416;5.442;2024-02-21T12:40:07;101110.56;;;11.21;100.00
73516;BME280;61763;51.416;5.442;2024-02-21T12:42:33;101109.25;;;11.11;100.00
73516;BME280;61763;51.416;5.442;2024-02-21T12:44:59;101092.88;;;10.97;100.00
73516;BME280;61763;51.416;5.442;2024-02-21T12:47:25;101098.28;;;10.97;100.00
73516;BME280;61763;51.416;5.442;2024-02-21T12:49:54;101091.03;;;10.97;100.00
73516;BME280;61763;51.416;5.442;2024-02-21T12:52:19;101079.78;;;10.87;100.00
73516;BME280;61763;51.416;5.442;2024-02-21T12:54:45;101067.38;;;10.83;100.00
73516;BME280;61763;51.416;5.442;2024-02-21T12:57:10;101060.19;;;10.84;100.00